sensor_id;sensor_type;location;lat;lon;timestamp;P1;durP1;ratioP1;P2;durP2;ratioP2
23388;SDS011;11867;51.198;11.966;2023-06-22T00:00:18;9.52;;;8.32;;
23388;SDS011;11867;51.198;11.966;2023-06-22T00:01:44;10.05;;;8.60;;
23388;SDS011;11867;51.198;11.966;2023-06-22T00:03:07;9.50;;;8.27;;
23388;SDS011;11867;51.198;11.966;2023-06-22T00:04:29;9.50;;;7.35;;
23388;SDS011;11867;51.198;11.966;2023-06-22T00:05:52;8.60;;;7.65;;
23388;SDS011;11867;51.198;11.966;2023-06-22T00:07:14;8.90;;;7.80;;
23388;SDS011;11867;51.198;11.966;2023-06-22T00:08:37;9.52;;;8.05;;
23388;SDS011;11867;51.198;11.966;2023-06-22T00:10:00;8.25;;;7.55;;
23388;SDS011;11867;51.198;11.966;2023-06-22T00:11:22;9.23;;;7.85;;
23388;SDS011;11867;51.198;11.966;2023-06-22T00:12:45;10.13;;;7.93;;
23388;SDS011;11867;51.198;11.966;2023-06-22T00:14:07;8.70;;;7.80;;
23388;SDS011;11867;51.198;11.966;2023-06-22T00:15:30;13.10;;;8.20;;
23388;SDS011;11867;51.198;11.966;2023-06-22T00:16:54;9.40;;;8.45;;
23388;SDS011;11867;51.198;11.966;2023-06-22T00:18:18;9.38;;;8.38;;
23388;SDS011;11867;51.198;11.966;2023-06-22T00:19:40;8.90;;;8.10;;
23388;SDS011;11867;51.198;11.966;2023-06-22T00:21:04;9.35;;;8.38;;
23388;SDS011;11867;51.198;11.966;2023-06-22T00:22:27;8.68;;;7.75;;
23388;SDS011;11867;51.198;11.966;2023-06-22T00:23:50;8.45;;;7.65;;
23388;SDS011;11867;51.198;11.966;2023-06-22T00:25:13;9.23;;;8.25;;
23388;SDS011;11867;51.198;11.966;2023-06-22T00:26:35;9.95;;;8.23;;
23388;SDS011;11867;51.198;11.966;2023-06-22T00:27:58;10.90;;;8.68;;
23388;SDS011;11867;51.198;11.966;2023-06-22T00:29:20;9.30;;;8.40;;
23388;SDS011;11867;51.198;11.966;2023-06-22T00:30:46;9.20;;;8.30;;
23388;SDS011;11867;51.198;11.966;2023-06-22T00:32:10;8.88;;;8.00;;
23388;SDS011;11867;51.198;11.966;2023-06-22T00:33:32;8.93;;;8.02;;
23388;SDS011;11867;51.198;11.966;2023-06-22T00:34:55;8.60;;;7.78;;
23388;SDS011;11867;51.198;11.966;2023-06-22T00:36:17;9.10;;;8.05;;
23388;SDS011;11867;51.198;11.966;2023-06-22T00:37:40;9.77;;;8.32;;
23388;SDS011;11867;51.198;11.966;2023-06-22T00:39:03;8.80;;;7.93;;
23388;SDS011;11867;51.198;11.966;2023-06-22T00:40:27;10.43;;;8.18;;
23388;SDS011;11867;51.198;11.966;2023-06-22T00:41:50;9.13;;;8.23;;
23388;SDS011;11867;51.198;11.966;2023-06-22T00:43:12;11.27;;;8.60;;
23388;SDS011;11867;51.198;11.966;2023-06-22T00:44:35;9.00;;;8.20;;
23388;SDS011;11867;51.198;11.966;2023-06-22T00:45:58;9.63;;;8.40;;
23388;SDS011;11867;51.198;11.966;2023-06-22T00:47:23;9.10;;;8.30;;
23388;SDS011;11867;51.198;11.966;2023-06-22T00:48:46;9.45;;;8.45;;
23388;SDS011;11867;51.198;11.966;2023-06-22T00:50:09;11.65;;;7.82;;
23388;SDS011;11867;51.198;11.966;2023-06-22T00:53:08;9.07;;;8.18;;
23388;SDS011;11867;51.198;11.966;2023-06-22T00:54:31;9.43;;;8.55;;
23388;SDS011;11867;51.198;11.966;2023-06-22T00:55:54;9.15;;;8.20;;
23388;SDS011;11867;51.198;11.966;2023-06-22T00:57:21;12.40;;;9.05;;
23388;SDS011;11867;51.198;11.966;2023-06-22T00:58:47;9.23;;;8.32;;
23388;SDS011;11867;51.198;11.966;2023-06-22T01:00:10;9.73;;;8.23;;
23388;SDS011;11867;51.198;11.966;2023-06-22T01:01:38;8.90;;;8.00;;
23388;SDS011;11867;51.198;11.966;2023-06-22T01:03:04;9.50;;;8.50;;
23388;SDS011;11867;51.198;11.966;2023-06-22T01:04:34;9.32;;;8.32;;
23388;SDS011;11867;51.198;11.966;2023-06-22T01:05:59;9.38;;;8.48;;
23388;SDS011;11867;51.198;11.966;2023-06-22T01:07:31;10.15;;;9.10;;
23388;SDS011;11867;51.198;11.966;2023-06-22T01:09:00;10.68;;;9.27;;
23388;SDS011;11867;51.198;11.966;2023-06-22T01:10:29;8.50;;;7.70;;
23388;SDS011;11867;51.198;11.966;2023-06-22T01:11:57;10.48;;;8.45;;
23388;SDS011;11867;51.198;11.966;2023-06-22T01:13:25;10.02;;;8.95;;
23388;SDS011;11867;51.198;11.966;2023-06-22T01:14:53;10.77;;;8.73;;
23388;SDS011;11867;51.198;11.966;2023-06-22T01:16:19;9.20;;;8.20;;
23388;SDS011;11867;51.198;11.966;2023-06-22T01:17:45;10.30;;;8.50;;
23388;SDS011;11867;51.198;11.966;2023-06-22T01:19:16;10.45;;;9.35;;
23388;SDS011;11867;51.198;11.966;2023-06-22T01:20:51;11.55;;;8.43;;
23388;SDS011;11867;51.198;11.966;2023-06-22T01:22:16;11.65;;;9.13;;
23388;SDS011;11867;51.198;11.966;2023-06-22T01:23:42;9.10;;;8.15;;
23388;SDS011;11867;51.198;11.966;2023-06-22T01:25:17;9.77;;;8.48;;
23388;SDS011;11867;51.198;11.966;2023-06-22T01:26:43;9.88;;;8.65;;
23388;SDS011;11867;51.198;11.966;2023-06-22T01:30:14;10.05;;;8.90;;
23388;SDS011;11867;51.198;11.966;2023-06-22T01:31:38;9.07;;;8.18;;
23388;SDS011;11867;51.198;11.966;2023-06-22T01:33:03;9.82;;;8.88;;
23388;SDS011;11867;51.198;11.966;2023-06-22T01:34:27;9.55;;;8.40;;
23388;SDS011;11867;51.198;11.966;2023-06-22T01:35:51;10.82;;;8.57;;
23388;SDS011;11867;51.198;11.966;2023-06-22T01:37:13;9.27;;;8.05;;
23388;SDS011;11867;51.198;11.966;2023-06-22T01:38:37;9.35;;;8.43;;
23388;SDS011;11867;51.198;11.966;2023-06-22T01:40:00;11.52;;;9.20;;
23388;SDS011;11867;51.198;11.966;2023-06-22T01:41:26;11.57;;;9.10;;
23388;SDS011;11867;51.198;11.966;2023-06-22T01:42:49;10.35;;;8.35;;
23388;SDS011;11867;51.198;11.966;2023-06-22T01:44:13;10.63;;;9.10;;
23388;SDS011;11867;51.198;11.966;2023-06-22T01:45:37;9.00;;;8.20;;
23388;SDS011;11867;51.198;11.966;2023-06-22T01:47:00;9.88;;;8.88;;
23388;SDS011;11867;51.198;11.966;2023-06-22T01:48:23;11.32;;;9.75;;
23388;SDS011;11867;51.198;11.966;2023-06-22T01:49:47;10.77;;;9.25;;
23388;SDS011;11867;51.198;11.966;2023-06-22T01:51:10;11.10;;;9.05;;
23388;SDS011;11867;51.198;11.966;2023-06-22T01:52:33;10.25;;;9.25;;
23388;SDS011;11867;51.198;11.966;2023-06-22T01:53:56;10.82;;;9.63;;
23388;SDS011;11867;51.198;11.966;2023-06-22T01:55:19;10.00;;;8.38;;
23388;SDS011;11867;51.198;11.966;2023-06-22T01:56:41;12.00;;;8.93;;
23388;SDS011;11867;51.198;11.966;2023-06-22T01:58:04;10.68;;;9.00;;
23388;SDS011;11867;51.198;11.966;2023-06-22T01:59:27;11.38;;;9.45;;
23388;SDS011;11867;51.198;11.966;2023-06-22T02:00:57;10.50;;;9.40;;
23388;SDS011;11867;51.198;11.966;2023-06-22T02:02:25;10.45;;;9.25;;
23388;SDS011;11867;51.198;11.966;2023-06-22T02:03:52;10.27;;;9.27;;
23388;SDS011;11867;51.198;11.966;2023-06-22T02:05:23;11.35;;;9.82;;
23388;SDS011;11867;51.198;11.966;2023-06-22T02:06:47;10.43;;;8.90;;
23388;SDS011;11867;51.198;11.966;2023-06-22T02:08:15;11.60;;;9.80;;
23388;SDS011;11867;51.198;11.966;2023-06-22T02:09:42;10.60;;;9.60;;
23388;SDS011;11867;51.198;11.966;2023-06-22T02:11:07;11.57;;;9.32;;
23388;SDS011;11867;51.198;11.966;2023-06-22T02:12:31;12.23;;;9.73;;
23388;SDS011;11867;51.198;11.966;2023-06-22T02:13:56;12.07;;;9.73;;
23388;SDS011;11867;51.198;11.966;2023-06-22T02:15:20;11.30;;;9.68;;
23388;SDS011;11867;51.198;11.966;2023-06-22T02:16:45;10.93;;;9.43;;
23388;SDS011;11867;51.198;11.966;2023-06-22T02:18:08;12.15;;;9.57;;
23388;SDS011;11867;51.198;11.966;2023-06-22T02:19:31;11.68;;;9.98;;
23388;SDS011;11867;51.198;11.966;2023-06-22T02:20:55;11.20;;;9.18;;
23388;SDS011;11867;51.198;11.966;2023-06-22T02:22:17;11.52;;;9.57;;
23388;SDS011;11867;51.198;11.966;2023-06-22T02:23:40;10.23;;;9.23;;
23388;SDS011;11867;51.198;11.966;2023-06-22T02:25:02;13.98;;;9.95;;
23388;SDS011;11867;51.198;11.966;2023-06-22T02:26:25;14.23;;;9.52;;
23388;SDS011;11867;51.198;11.966;2023-06-22T02:27:49;14.18;;;10.30;;
23388;SDS011;11867;51.198;11.966;2023-06-22T02:29:12;11.73;;;9.60;;
23388;SDS011;11867;51.198;11.966;2023-06-22T02:30:34;10.10;;;9.10;;
23388;SDS011;11867;51.198;11.966;2023-06-22T02:31:58;12.18;;;9.80;;
23388;SDS011;11867;51.198;11.966;2023-06-22T02:33:21;10.80;;;9.70;;
23388;SDS011;11867;51.198;11.966;2023-06-22T02:34:43;11.52;;;9.68;;
23388;SDS011;11867;51.198;11.966;2023-06-22T02:36:09;14.45;;;10.07;;
23388;SDS011;11867;51.198;11.966;2023-06-22T02:37:31;10.15;;;9.10;;
23388;SDS011;11867;51.198;11.966;2023-06-22T02:38:54;11.05;;;10.00;;
23388;SDS011;11867;51.198;11.966;2023-06-22T02:40:22;11.25;;;9.10;;
23388;SDS011;11867;51.198;11.966;2023-06-22T02:41:45;14.25;;;9.45;;
23388;SDS011;11867;51.198;11.966;2023-06-22T02:43:08;13.68;;;10.20;;
23388;SDS011;11867;51.198;11.966;2023-06-22T02:44:31;11.52;;;10.10;;
23388;SDS011;11867;51.198;11.966;2023-06-22T02:45:53;10.63;;;9.55;;
23388;SDS011;11867;51.198;11.966;2023-06-22T02:47:17;10.95;;;9.88;;
23388;SDS011;11867;51.198;11.966;2023-06-22T02:48:40;10.70;;;9.60;;
23388;SDS011;11867;51.198;11.966;2023-06-22T02:50:03;10.52;;;9.55;;
23388;SDS011;11867;51.198;11.966;2023-06-22T02:51:26;11.50;;;10.30;;
23388;SDS011;11867;51.198;11.966;2023-06-22T02:52:49;11.75;;;9.60;;
23388;SDS011;11867;51.198;11.966;2023-06-22T02:54:12;12.90;;;10.02;;
23388;SDS011;11867;51.198;11.966;2023-06-22T02:55:34;11.75;;;10.20;;
23388;SDS011;11867;51.198;11.966;2023-06-22T02:56:57;10.43;;;9.40;;
23388;SDS011;11867;51.198;11.966;2023-06-22T02:58:24;11.02;;;9.93;;
23388;SDS011;11867;51.198;11.966;2023-06-22T02:59:47;10.50;;;9.05;;
23388;SDS011;11867;51.198;11.966;2023-06-22T03:01:10;10.88;;;9.65;;
23388;SDS011;11867;51.198;11.966;2023-06-22T03:02:37;9.50;;;8.60;;
23388;SDS011;11867;51.198;11.966;2023-06-22T03:03:59;13.07;;;10.40;;
23388;SDS011;11867;51.198;11.966;2023-06-22T03:05:22;10.55;;;9.45;;
23388;SDS011;11867;51.198;11.966;2023-06-22T03:06:45;10.95;;;9.55;;
23388;SDS011;11867;51.198;11.966;2023-06-22T03:08:12;11.98;;;10.55;;
23388;SDS011;11867;51.198;11.966;2023-06-22T03:09:35;11.85;;;9.82;;
23388;SDS011;11867;51.198;11.966;2023-06-22T03:10:57;11.82;;;10.23;;
23388;SDS011;11867;51.198;11.966;2023-06-22T03:12:19;10.93;;;9.38;;
23388;SDS011;11867;51.198;11.966;2023-06-22T03:13:42;11.57;;;10.00;;
23388;SDS011;11867;51.198;11.966;2023-06-22T03:15:05;10.80;;;9.70;;
23388;SDS011;11867;51.198;11.966;2023-06-22T03:16:29;11.38;;;10.27;;
23388;SDS011;11867;51.198;11.966;2023-06-22T03:17:53;11.70;;;9.93;;
23388;SDS011;11867;51.198;11.966;2023-06-22T03:19:15;11.73;;;10.52;;
23388;SDS011;11867;51.198;11.966;2023-06-22T03:20:38;11.30;;;10.10;;
23388;SDS011;11867;51.198;11.966;2023-06-22T03:22:00;11.52;;;10.40;;
23388;SDS011;11867;51.198;11.966;2023-06-22T03:23:23;16.40;;;10.07;;
23388;SDS011;11867;51.198;11.966;2023-06-22T03:24:45;13.05;;;9.57;;
23388;SDS011;11867;51.198;11.966;2023-06-22T03:26:08;13.13;;;9.68;;
23388;SDS011;11867;51.198;11.966;2023-06-22T03:27:31;10.88;;;9.77;;
23388;SDS011;11867;51.198;11.966;2023-06-22T03:28:54;13.80;;;10.18;;
23388;SDS011;11867;51.198;11.966;2023-06-22T03:30:16;11.73;;;9.50;;
23388;SDS011;11867;51.198;11.966;2023-06-22T03:31:39;11.10;;;10.00;;
23388;SDS011;11867;51.198;11.966;2023-06-22T03:33:03;11.35;;;9.85;;
23388;SDS011;11867;51.198;11.966;2023-06-22T03:34:26;13.18;;;9.68;;
23388;SDS011;11867;51.198;11.966;2023-06-22T03:35:48;13.40;;;10.60;;
23388;SDS011;11867;51.198;11.966;2023-06-22T03:37:11;12.20;;;10.73;;
23388;SDS011;11867;51.198;11.966;2023-06-22T03:38:34;15.13;;;11.00;;
23388;SDS011;11867;51.198;11.966;2023-06-22T03:39:57;17.02;;;10.93;;
23388;SDS011;11867;51.198;11.966;2023-06-22T03:41:20;13.65;;;10.35;;
23388;SDS011;11867;51.198;11.966;2023-06-22T03:42:43;14.52;;;11.00;;
23388;SDS011;11867;51.198;11.966;2023-06-22T03:44:05;16.67;;;10.88;;
23388;SDS011;11867;51.198;11.966;2023-06-22T03:45:32;15.55;;;11.20;;
23388;SDS011;11867;51.198;11.966;2023-06-22T03:46:54;14.73;;;10.77;;
23388;SDS011;11867;51.198;11.966;2023-06-22T03:48:19;13.70;;;10.82;;
23388;SDS011;11867;51.198;11.966;2023-06-22T03:49:41;11.15;;;9.90;;
23388;SDS011;11867;51.198;11.966;2023-06-22T03:51:04;12.02;;;10.02;;
23388;SDS011;11867;51.198;11.966;2023-06-22T03:52:27;13.27;;;10.27;;
23388;SDS011;11867;51.198;11.966;2023-06-22T03:53:49;11.23;;;9.55;;
23388;SDS011;11867;51.198;11.966;2023-06-22T03:55:12;16.00;;;10.50;;
23388;SDS011;11867;51.198;11.966;2023-06-22T03:56:34;14.65;;;10.57;;
23388;SDS011;11867;51.198;11.966;2023-06-22T03:58:01;16.38;;;10.93;;
23388;SDS011;11867;51.198;11.966;2023-06-22T03:59:27;19.65;;;11.25;;
23388;SDS011;11867;51.198;11.966;2023-06-22T04:00:50;14.27;;;11.82;;
23388;SDS011;11867;51.198;11.966;2023-06-22T04:02:13;14.38;;;11.63;;
23388;SDS011;11867;51.198;11.966;2023-06-22T04:03:38;13.65;;;10.98;;
23388;SDS011;11867;51.198;11.966;2023-06-22T04:05:01;15.98;;;10.98;;
23388;SDS011;11867;51.198;11.966;2023-06-22T04:06:25;15.75;;;11.05;;
23388;SDS011;11867;51.198;11.966;2023-06-22T04:07:48;16.63;;;10.80;;
23388;SDS011;11867;51.198;11.966;2023-06-22T04:09:11;14.80;;;11.60;;
23388;SDS011;11867;51.198;11.966;2023-06-22T04:10:34;15.18;;;10.38;;
23388;SDS011;11867;51.198;11.966;2023-06-22T04:11:56;13.98;;;10.57;;
23388;SDS011;11867;51.198;11.966;2023-06-22T04:13:19;16.05;;;10.05;;
23388;SDS011;11867;51.198;11.966;2023-06-22T04:14:42;16.02;;;10.82;;
23388;SDS011;11867;51.198;11.966;2023-06-22T04:16:04;18.88;;;10.38;;
23388;SDS011;11867;51.198;11.966;2023-06-22T04:17:27;16.88;;;10.75;;
23388;SDS011;11867;51.198;11.966;2023-06-22T04:18:52;14.52;;;10.93;;
23388;SDS011;11867;51.198;11.966;2023-06-22T04:20:15;11.75;;;10.13;;
23388;SDS011;11867;51.198;11.966;2023-06-22T04:21:38;12.93;;;10.82;;
23388;SDS011;11867;51.198;11.966;2023-06-22T04:23:00;14.88;;;11.00;;
23388;SDS011;11867;51.198;11.966;2023-06-22T04:24:23;15.52;;;11.23;;
23388;SDS011;11867;51.198;11.966;2023-06-22T04:25:46;16.25;;;11.75;;
23388;SDS011;11867;51.198;11.966;2023-06-22T04:27:08;15.10;;;11.55;;
23388;SDS011;11867;51.198;11.966;2023-06-22T04:28:30;15.60;;;12.45;;
23388;SDS011;11867;51.198;11.966;2023-06-22T04:29:56;17.10;;;12.77;;
23388;SDS011;11867;51.198;11.966;2023-06-22T04:31:21;16.10;;;11.88;;
23388;SDS011;11867;51.198;11.966;2023-06-22T04:32:53;15.38;;;11.23;;
23388;SDS011;11867;51.198;11.966;2023-06-22T04:34:20;16.08;;;10.80;;
23388;SDS011;11867;51.198;11.966;2023-06-22T04:35:44;14.38;;;11.25;;
23388;SDS011;11867;51.198;11.966;2023-06-22T04:37:08;12.32;;;10.27;;
23388;SDS011;11867;51.198;11.966;2023-06-22T04:38:31;14.32;;;11.38;;
23388;SDS011;11867;51.198;11.966;2023-06-22T04:39:55;21.02;;;11.02;;
23388;SDS011;11867;51.198;11.966;2023-06-22T04:41:18;14.02;;;10.27;;
23388;SDS011;11867;51.198;11.966;2023-06-22T04:42:45;19.30;;;11.27;;
23388;SDS011;11867;51.198;11.966;2023-06-22T04:44:14;15.23;;;10.95;;
23388;SDS011;11867;51.198;11.966;2023-06-22T04:45:46;13.48;;;10.95;;
23388;SDS011;11867;51.198;11.966;2023-06-22T04:47:13;13.93;;;10.18;;
23388;SDS011;11867;51.198;11.966;2023-06-22T04:48:36;14.50;;;10.32;;
23388;SDS011;11867;51.198;11.966;2023-06-22T04:50:00;12.82;;;11.38;;
23388;SDS011;11867;51.198;11.966;2023-06-22T04:51:27;13.18;;;10.55;;
23388;SDS011;11867;51.198;11.966;2023-06-22T04:52:52;17.73;;;10.82;;
23388;SDS011;11867;51.198;11.966;2023-06-22T04:54:14;15.68;;;11.45;;
23388;SDS011;11867;51.198;11.966;2023-06-22T04:55:36;14.85;;;10.48;;
23388;SDS011;11867;51.198;11.966;2023-06-22T04:57:03;12.60;;;10.98;;
23388;SDS011;11867;51.198;11.966;2023-06-22T04:58:31;15.63;;;11.48;;
23388;SDS011;11867;51.198;11.966;2023-06-22T04:59:54;13.85;;;10.90;;
23388;SDS011;11867;51.198;11.966;2023-06-22T05:01:17;18.48;;;11.15;;
23388;SDS011;11867;51.198;11.966;2023-06-22T05:02:40;11.95;;;10.75;;
23388;SDS011;11867;51.198;11.966;2023-06-22T05:04:03;15.40;;;11.63;;
23388;SDS011;11867;51.198;11.966;2023-06-22T05:05:29;13.63;;;11.32;;
23388;SDS011;11867;51.198;11.966;2023-06-22T05:06:53;16.25;;;10.50;;
23388;SDS011;11867;51.198;11.966;2023-06-22T05:08:15;12.60;;;10.55;;
23388;SDS011;11867;51.198;11.966;2023-06-22T05:09:39;15.77;;;10.55;;
23388;SDS011;11867;51.198;11.966;2023-06-22T05:11:02;11.75;;;10.48;;
23388;SDS011;11867;51.198;11.966;2023-06-22T05:12:27;14.43;;;10.48;;
23388;SDS011;11867;51.198;11.966;2023-06-22T05:13:50;11.75;;;10.52;;
23388;SDS011;11867;51.198;11.966;2023-06-22T05:15:13;13.00;;;11.43;;
23388;SDS011;11867;51.198;11.966;2023-06-22T05:16:36;13.70;;;10.75;;
23388;SDS011;11867;51.198;11.966;2023-06-22T05:18:00;16.10;;;10.93;;
23388;SDS011;11867;51.198;11.966;2023-06-22T05:19:27;12.40;;;10.55;;
23388;SDS011;11867;51.198;11.966;2023-06-22T05:20:57;17.42;;;11.52;;
23388;SDS011;11867;51.198;11.966;2023-06-22T05:22:20;14.60;;;11.07;;
23388;SDS011;11867;51.198;11.966;2023-06-22T05:23:43;15.55;;;11.05;;
23388;SDS011;11867;51.198;11.966;2023-06-22T05:25:07;13.13;;;11.57;;
23388;SDS011;11867;51.198;11.966;2023-06-22T05:26:33;14.35;;;11.38;;
23388;SDS011;11867;51.198;11.966;2023-06-22T05:27:56;14.73;;;11.93;;
23388;SDS011;11867;51.198;11.966;2023-06-22T05:29:18;14.13;;;12.23;;
23388;SDS011;11867;51.198;11.966;2023-06-22T05:30:41;17.70;;;13.10;;
23388;SDS011;11867;51.198;11.966;2023-06-22T05:32:04;15.85;;;13.88;;
23388;SDS011;11867;51.198;11.966;2023-06-22T05:33:28;18.77;;;14.65;;
23388;SDS011;11867;51.198;11.966;2023-06-22T05:34:51;15.00;;;12.57;;
23388;SDS011;11867;51.198;11.966;2023-06-22T05:36:15;22.05;;;14.38;;
23388;SDS011;11867;51.198;11.966;2023-06-22T05:37:38;34.92;;;15.95;;
23388;SDS011;11867;51.198;11.966;2023-06-22T05:39:00;22.67;;;14.80;;
23388;SDS011;11867;51.198;11.966;2023-06-22T05:40:33;18.55;;;14.90;;
23388;SDS011;11867;51.198;11.966;2023-06-22T05:41:56;23.48;;;15.15;;
23388;SDS011;11867;51.198;11.966;2023-06-22T05:43:19;19.58;;;15.40;;
23388;SDS011;11867;51.198;11.966;2023-06-22T05:44:42;18.98;;;14.27;;
23388;SDS011;11867;51.198;11.966;2023-06-22T05:46:05;24.83;;;15.05;;
23388;SDS011;11867;51.198;11.966;2023-06-22T05:47:28;20.90;;;14.88;;
23388;SDS011;11867;51.198;11.966;2023-06-22T05:48:51;27.48;;;15.40;;
23388;SDS011;11867;51.198;11.966;2023-06-22T05:50:14;29.02;;;16.20;;
23388;SDS011;11867;51.198;11.966;2023-06-22T05:51:37;18.38;;;14.85;;
23388;SDS011;11867;51.198;11.966;2023-06-22T05:53:00;23.67;;;16.02;;
23388;SDS011;11867;51.198;11.966;2023-06-22T05:54:23;21.92;;;15.50;;
23388;SDS011;11867;51.198;11.966;2023-06-22T05:55:46;20.02;;;14.63;;
23388;SDS011;11867;51.198;11.966;2023-06-22T05:57:09;20.90;;;14.50;;
23388;SDS011;11867;51.198;11.966;2023-06-22T05:58:31;22.42;;;15.80;;
23388;SDS011;11867;51.198;11.966;2023-06-22T05:59:54;19.48;;;15.23;;
23388;SDS011;11867;51.198;11.966;2023-06-22T06:01:17;20.33;;;17.20;;
23388;SDS011;11867;51.198;11.966;2023-06-22T06:02:40;25.45;;;15.85;;
23388;SDS011;11867;51.198;11.966;2023-06-22T06:04:05;31.25;;;17.80;;
23388;SDS011;11867;51.198;11.966;2023-06-22T06:05:30;24.85;;;16.80;;
23388;SDS011;11867;51.198;11.966;2023-06-22T06:06:54;24.35;;;16.88;;
23388;SDS011;11867;51.198;11.966;2023-06-22T06:08:17;19.63;;;15.02;;
23388;SDS011;11867;51.198;11.966;2023-06-22T06:09:40;18.65;;;15.20;;
23388;SDS011;11867;51.198;11.966;2023-06-22T06:11:03;20.27;;;14.70;;
23388;SDS011;11867;51.198;11.966;2023-06-22T06:12:26;21.70;;;14.25;;
23388;SDS011;11867;51.198;11.966;2023-06-22T06:13:49;21.88;;;14.77;;
23388;SDS011;11867;51.198;11.966;2023-06-22T06:15:12;18.95;;;15.20;;
23388;SDS011;11867;51.198;11.966;2023-06-22T06:16:35;22.55;;;14.80;;
23388;SDS011;11867;51.198;11.966;2023-06-22T06:17:58;21.45;;;15.55;;
23388;SDS011;11867;51.198;11.966;2023-06-22T06:19:21;18.27;;;15.18;;
23388;SDS011;11867;51.198;11.966;2023-06-22T06:20:44;26.05;;;16.20;;
23388;SDS011;11867;51.198;11.966;2023-06-22T06:22:08;24.13;;;15.23;;
23388;SDS011;11867;51.198;11.966;2023-06-22T06:23:31;19.52;;;14.80;;
23388;SDS011;11867;51.198;11.966;2023-06-22T06:24:53;18.20;;;12.90;;
23388;SDS011;11867;51.198;11.966;2023-06-22T06:26:16;16.30;;;14.15;;
23388;SDS011;11867;51.198;11.966;2023-06-22T06:27:39;19.05;;;13.73;;
23388;SDS011;11867;51.198;11.966;2023-06-22T06:29:02;19.75;;;14.35;;
23388;SDS011;11867;51.198;11.966;2023-06-22T06:30:25;18.38;;;13.63;;
23388;SDS011;11867;51.198;11.966;2023-06-22T06:31:48;20.40;;;13.02;;
23388;SDS011;11867;51.198;11.966;2023-06-22T06:33:15;20.48;;;14.15;;
23388;SDS011;11867;51.198;11.966;2023-06-22T06:34:38;16.23;;;13.25;;
23388;SDS011;11867;51.198;11.966;2023-06-22T06:36:02;16.23;;;13.13;;
23388;SDS011;11867;51.198;11.966;2023-06-22T06:37:26;18.20;;;12.65;;
23388;SDS011;11867;51.198;11.966;2023-06-22T06:38:49;14.07;;;12.63;;
23388;SDS011;11867;51.198;11.966;2023-06-22T06:40:12;17.67;;;12.70;;
23388;SDS011;11867;51.198;11.966;2023-06-22T06:41:36;17.17;;;13.02;;
23388;SDS011;11867;51.198;11.966;2023-06-22T06:42:59;20.23;;;13.50;;
23388;SDS011;11867;51.198;11.966;2023-06-22T06:44:21;16.33;;;12.88;;
23388;SDS011;11867;51.198;11.966;2023-06-22T06:45:44;15.48;;;11.52;;
23388;SDS011;11867;51.198;11.966;2023-06-22T06:47:07;14.43;;;12.77;;
23388;SDS011;11867;51.198;11.966;2023-06-22T06:48:30;15.88;;;12.90;;
23388;SDS011;11867;51.198;11.966;2023-06-22T06:49:53;16.55;;;12.25;;
23388;SDS011;11867;51.198;11.966;2023-06-22T06:51:15;13.32;;;11.93;;
23388;SDS011;11867;51.198;11.966;2023-06-22T06:52:40;19.38;;;12.10;;
23388;SDS011;11867;51.198;11.966;2023-06-22T06:54:03;17.30;;;12.10;;
23388;SDS011;11867;51.198;11.966;2023-06-22T06:55:25;18.63;;;11.65;;
23388;SDS011;11867;51.198;11.966;2023-06-22T06:56:51;13.90;;;11.48;;
23388;SDS011;11867;51.198;11.966;2023-06-22T06:58:14;13.75;;;11.48;;
23388;SDS011;11867;51.198;11.966;2023-06-22T06:59:37;16.33;;;11.68;;
23388;SDS011;11867;51.198;11.966;2023-06-22T07:01:00;15.57;;;12.05;;
23388;SDS011;11867;51.198;11.966;2023-06-22T07:02:25;13.40;;;11.80;;
23388;SDS011;11867;51.198;11.966;2023-06-22T07:03:49;16.90;;;11.73;;
23388;SDS011;11867;51.198;11.966;2023-06-22T07:05:12;17.90;;;11.90;;
23388;SDS011;11867;51.198;11.966;2023-06-22T07:06:35;12.32;;;10.35;;
23388;SDS011;11867;51.198;11.966;2023-06-22T07:08:00;11.43;;;10.23;;
23388;SDS011;11867;51.198;11.966;2023-06-22T07:09:23;14.32;;;10.88;;
23388;SDS011;11867;51.198;11.966;2023-06-22T07:10:46;13.18;;;10.95;;
23388;SDS011;11867;51.198;11.966;2023-06-22T07:12:09;14.48;;;10.75;;
23388;SDS011;11867;51.198;11.966;2023-06-22T07:13:32;12.02;;;10.07;;
23388;SDS011;11867;51.198;11.966;2023-06-22T07:14:56;12.68;;;9.98;;
23388;SDS011;11867;51.198;11.966;2023-06-22T07:16:24;15.77;;;9.95;;
23388;SDS011;11867;51.198;11.966;2023-06-22T07:17:49;17.17;;;9.60;;
23388;SDS011;11867;51.198;11.966;2023-06-22T07:19:12;12.10;;;8.98;;
23388;SDS011;11867;51.198;11.966;2023-06-22T07:20:35;12.43;;;10.40;;
23388;SDS011;11867;51.198;11.966;2023-06-22T07:21:58;13.48;;;10.18;;
23388;SDS011;11867;51.198;11.966;2023-06-22T07:23:22;15.23;;;9.68;;
23388;SDS011;11867;51.198;11.966;2023-06-22T07:24:45;13.27;;;9.10;;
23388;SDS011;11867;51.198;11.966;2023-06-22T07:26:08;11.52;;;9.38;;
23388;SDS011;11867;51.198;11.966;2023-06-22T07:27:31;12.13;;;9.40;;
23388;SDS011;11867;51.198;11.966;2023-06-22T07:28:57;14.50;;;10.18;;
23388;SDS011;11867;51.198;11.966;2023-06-22T07:30:20;11.32;;;9.77;;
23388;SDS011;11867;51.198;11.966;2023-06-22T07:31:43;10.23;;;9.18;;
23388;SDS011;11867;51.198;11.966;2023-06-22T07:33:07;14.90;;;10.50;;
23388;SDS011;11867;51.198;11.966;2023-06-22T07:34:30;11.88;;;9.68;;
23388;SDS011;11867;51.198;11.966;2023-06-22T07:35:53;10.43;;;9.23;;
23388;SDS011;11867;51.198;11.966;2023-06-22T07:37:16;12.10;;;10.10;;
23388;SDS011;11867;51.198;11.966;2023-06-22T07:38:40;11.68;;;10.43;;
23388;SDS011;11867;51.198;11.966;2023-06-22T07:40:04;11.65;;;9.90;;
23388;SDS011;11867;51.198;11.966;2023-06-22T07:41:28;11.23;;;10.13;;
23388;SDS011;11867;51.198;11.966;2023-06-22T07:42:51;10.25;;;9.13;;
23388;SDS011;11867;51.198;11.966;2023-06-22T07:44:14;18.40;;;8.80;;
23388;SDS011;11867;51.198;11.966;2023-06-22T07:45:37;14.88;;;10.40;;
23388;SDS011;11867;51.198;11.966;2023-06-22T07:47:02;13.43;;;10.10;;
23388;SDS011;11867;51.198;11.966;2023-06-22T07:48:25;14.15;;;9.77;;
23388;SDS011;11867;51.198;11.966;2023-06-22T07:49:48;11.07;;;9.95;;
23388;SDS011;11867;51.198;11.966;2023-06-22T07:51:12;14.55;;;10.10;;
23388;SDS011;11867;51.198;11.966;2023-06-22T07:52:34;12.02;;;10.02;;
23388;SDS011;11867;51.198;11.966;2023-06-22T07:53:59;18.75;;;10.70;;
23388;SDS011;11867;51.198;11.966;2023-06-22T07:55:22;14.18;;;9.82;;
23388;SDS011;11867;51.198;11.966;2023-06-22T07:56:45;15.23;;;10.20;;
23388;SDS011;11867;51.198;11.966;2023-06-22T07:58:08;17.05;;;11.02;;
23388;SDS011;11867;51.198;11.966;2023-06-22T07:59:31;12.65;;;10.35;;
23388;SDS011;11867;51.198;11.966;2023-06-22T08:00:54;16.42;;;10.35;;
23388;SDS011;11867;51.198;11.966;2023-06-22T08:02:17;15.43;;;10.52;;
23388;SDS011;11867;51.198;11.966;2023-06-22T08:03:40;14.52;;;9.60;;
23388;SDS011;11867;51.198;11.966;2023-06-22T08:05:03;15.52;;;9.55;;
23388;SDS011;11867;51.198;11.966;2023-06-22T08:06:43;10.83;;;9.50;;
23388;SDS011;11867;51.198;11.966;2023-06-22T08:08:06;9.82;;;8.80;;
23388;SDS011;11867;51.198;11.966;2023-06-22T08:09:31;15.93;;;9.07;;
23388;SDS011;11867;51.198;11.966;2023-06-22T08:10:54;14.20;;;8.93;;